Time;durP1;ratioP1;P1;durP2;ratioP2;P2;SDS_P1;SDS_P2;PMS_P1;PMS_P2;Temp;Humidity;BMP_temperature;BMP_pressure;BME280_temperature;BME280_humidity;BME280_pressure;Samples;Min_cycle;Max_cycle;Signal;HPM_P1;HPM_P2
2021/07/24 00:01:46;;;;;;;4.38;2.70;;;;;;;;;;4974537;28;20023;-72
2021/07/24 00:04:14;;;;;;;6.50;2.95;;;;;;;;;;4973871;28;20360;-72
2021/07/24 00:06:40;;;;;;;4.70;2.78;;;;;;;;;;4973319;28;20109;-72
2021/07/24 00:09:05;;;;;;;7.57;2.72;;;;;;;;;;4972481;28;20109;-72
2021/07/24 00:11:34;;;;;;;5.63;2.78;;;;;;;;;;4973190;28;20031;-72
2021/07/24 00:14:00;;;;;;;4.72;2.65;;;;;;;;;;4973116;28;20026;-72
2021/07/24 00:16:25;;;;;;;4.97;2.80;;;;;;;;;;4973201;28;20086;-72
2021/07/24 00:18:51;;;;;;;4.25;2.28;;;;;;;;;;4973752;28;20058;-72
2021/07/24 00:21:16;;;;;;;4.43;2.53;;;;;;;;;;4973128;28;20030;-72
2021/07/24 00:23:42;;;;;;;4.60;2.55;;;;;;;;;;4972748;28;20031;-73
2021/07/24 00:26:12;;;;;;;5.07;3.20;;;;;;;;;;4973246;28;20090;-72
2021/07/24 00:28:38;;;;;;;6.72;3.05;;;;;;;;;;4972273;28;20023;-72
2021/07/24 00:31:03;;;;;;;4.43;3.00;;;;;;;;;;4973009;28;20023;-72
2021/07/24 00:33:29;;;;;;;4.13;2.63;;;;;;;;;;4972994;28;20093;-72
2021/07/24 00:35:55;;;;;;;5.13;2.95;;;;;;;;;;4973368;28;20034;-72
2021/07/24 00:38:21;;;;;;;3.95;2.80;;;;;;;;;;4972486;28;20023;-71
2021/07/24 00:40:53;;;;;;;6.78;2.60;;;;;;;;;;4972730;28;20030;-71
2021/07/24 00:43:20;;;;;;;4.78;2.92;;;;;;;;;;4973574;28;20374;-71
2021/07/24 00:45:48;;;;;;;7.97;3.17;;;;;;;;;;4972787;28;20033;-71
2021/07/24 00:48:21;;;;;;;4.80;2.50;;;;;;;;;;4973158;28;20040;-72
2021/07/24 00:50:49;;;;;;;4.07;2.60;;;;;;;;;;4973891;28;20023;-72
2021/07/24 00:53:21;;;;;;;5.75;3.25;;;;;;;;;;4995745;28;20039;-71
2021/07/24 00:55:50;;;;;;;4.55;2.95;;;;;;;;;;4977767;28;20556;-71
2021/07/24 00:58:27;;;;;;;3.95;2.72;;;;;;;;;;4976807;28;20143;-71
2021/07/24 01:00:53;;;;;;;4.32;2.90;;;;;;;;;;4975388;28;20336;-71
2021/07/24 01:03:19;;;;;;;5.55;2.80;;;;;;;;;;4976607;28;20049;-72
2021/07/24 01:05:48;;;;;;;4.10;2.65;;;;;;;;;;4974889;28;20105;-71
2021/07/24 01:08:14;;;;;;;4.32;2.70;;;;;;;;;;4974718;28;20109;-71
2021/07/24 01:10:40;;;;;;;6.05;2.92;;;;;;;;;;4976188;28;20431;-72
2021/07/24 01:13:08;;;;;;;4.45;2.70;;;;;;;;;;4975142;28;20122;-71
2021/07/24 01:15:33;;;;;;;5.80;2.72;;;;;;;;;;4975034;28;20126;-72
2021/07/24 01:17:59;;;;;;;4.32;2.67;;;;;;;;;;4975973;28;20117;-71
2021/07/24 01:20:25;;;;;;;5.28;2.75;;;;;;;;;;4976088;28;20344;-71
2021/07/24 01:22:55;;;;;;;4.85;2.90;;;;;;;;;;4976462;28;20489;-71
2021/07/24 01:25:21;;;;;;;4.68;3.00;;;;;;;;;;4975851;28;20031;-71
2021/07/24 01:27:47;;;;;;;4.78;2.97;;;;;;;;;;4976233;28;20565;-71
2021/07/24 01:30:13;;;;;;;5.32;2.75;;;;;;;;;;4974475;28;20034;-71
2021/07/24 01:32:39;;;;;;;3.83;2.65;;;;;;;;;;4976674;28;20031;-72
2021/07/24 01:35:05;;;;;;;5.35;2.42;;;;;;;;;;4976832;28;20046;-71
2021/07/24 01:37:30;;;;;;;4.25;2.30;;;;;;;;;;4976920;28;20030;-71
2021/07/24 01:39:56;;;;;;;3.28;2.33;;;;;;;;;;4976732;28;20565;-71
2021/07/24 01:42:22;;;;;;;5.00;2.50;;;;;;;;;;4976246;28;20041;-71
2021/07/24 01:44:48;;;;;;;3.15;2.35;;;;;;;;;;4975500;28;20027;-71
2021/07/24 01:47:13;;;;;;;6.43;2.53;;;;;;;;;;4975400;28;20541;-71
2021/07/24 01:52:51;;;;;;;;;;;;;;;;;;4976146;28;20065;-71
2021/07/24 01:55:42;;;;;;;5.18;2.20;;;;;;;;;;4975368;28;19965;-71
2021/07/24 01:58:11;;;;;;;3.55;2.22;;;;;;;;;;4974616;28;20031;-71
2021/07/24 02:00:40;;;;;;;3.80;2.47;;;;;;;;;;4975132;28;20126;-71
2021/07/24 02:03:12;;;;;;;5.03;2.47;;;;;;;;;;4974894;28;20037;-71
2021/07/24 02:05:49;;;;;;;4.78;2.35;;;;;;;;;;4975212;28;20027;-72
2021/07/24 02:08:20;;;;;;;3.55;2.45;;;;;;;;;;4974890;28;20031;-71
2021/07/24 02:10:47;;;;;;;4.38;2.50;;;;;;;;;;4974059;28;20062;-71
2021/07/24 02:13:14;;;;;;;5.68;2.63;;;;;;;;;;4975699;28;20031;-71
2021/07/24 02:15:40;;;;;;;3.30;2.58;;;;;;;;;;4975465;28;20026;-71
2021/07/24 02:18:06;;;;;;;5.15;2.60;;;;;;;;;;4974967;28;20085;-71
2021/07/24 02:20:32;;;;;;;4.35;2.40;;;;;;;;;;4974571;28;20038;-71
2021/07/24 02:22:58;;;;;;;5.20;2.85;;;;;;;;;;4974953;28;20081;-71
2021/07/24 02:25:24;;;;;;;5.53;2.42;;;;;;;;;;4975199;28;20292;-71
2021/07/24 02:27:50;;;;;;;4.65;2.70;;;;;;;;;;4974702;28;20053;-71
2021/07/24 02:30:17;;;;;;;3.45;2.40;;;;;;;;;;4974697;28;20034;-71
2021/07/24 02:32:43;;;;;;;6.30;2.40;;;;;;;;;;4974366;28;20034;-71
2021/07/24 02:35:10;;;;;;;5.43;2.92;;;;;;;;;;4974896;28;20363;-71
2021/07/24 02:37:36;;;;;;;3.72;2.50;;;;;;;;;;4974496;28;20386;-71
2021/07/24 02:40:02;;;;;;;3.35;2.30;;;;;;;;;;4974928;28;20037;-71
2021/07/24 02:42:28;;;;;;;4.20;2.75;;;;;;;;;;4974423;28;20027;-71
2021/07/24 02:44:53;;;;;;;4.00;2.50;;;;;;;;;;4974767;28;20494;-71
2021/07/24 02:47:19;;;;;;;4.05;2.42;;;;;;;;;;4974369;28;20058;-71
2021/07/24 02:49:45;;;;;;;4.65;2.72;;;;;;;;;;4974276;28;20037;-71
2021/07/24 02:52:11;;;;;;;4.20;2.13;;;;;;;;;;4984799;28;20370;-71
2021/07/24 02:54:36;;;;;;;4.25;2.30;;;;;;;;;;4986384;28;20027;-71
2021/07/24 02:57:03;;;;;;;3.25;2.13;;;;;;;;;;4974182;28;20085;-71
2021/07/24 02:59:29;;;;;;;4.10;2.60;;;;;;;;;;4974554;28;20086;-71
2021/07/24 03:01:55;;;;;;;4.78;2.92;;;;;;;;;;4974209;28;20474;-71
2021/07/24 03:04:21;;;;;;;4.70;2.25;;;;;;;;;;4973788;28;20113;-71
2021/07/24 03:06:46;;;;;;;4.78;2.45;;;;;;;;;;4973772;28;20065;-71
2021/07/24 03:09:12;;;;;;;3.42;2.17;;;;;;;;;;4972793;28;20125;-71
2021/07/24 03:11:37;;;;;;;3.53;2.13;;;;;;;;;;4973975;28;20030;-71
2021/07/24 03:14:03;;;;;;;4.05;2.42;;;;;;;;;;4973722;28;20161;-71
2021/07/24 03:16:29;;;;;;;3.40;2.60;;;;;;;;;;4974313;28;20057;-71
2021/07/24 03:18:55;;;;;;;3.70;2.40;;;;;;;;;;4973487;28;20026;-71
2021/07/24 03:21:20;;;;;;;6.60;3.17;;;;;;;;;;4973817;28;20041;-71
2021/07/24 03:23:46;;;;;;;4.10;2.28;;;;;;;;;;4973368;28;20113;-71
2021/07/24 03:26:12;;;;;;;3.55;2.35;;;;;;;;;;4973774;28;20062;-71
2021/07/24 03:28:37;;;;;;;4.45;2.50;;;;;;;;;;4974387;28;20026;-71
2021/07/24 03:31:04;;;;;;;3.80;2.22;;;;;;;;;;4974512;28;20026;-70
2021/07/24 03:33:31;;;;;;;4.10;2.45;;;;;;;;;;4974019;28;20139;-71
2021/07/24 03:35:57;;;;;;;3.60;2.63;;;;;;;;;;4973702;28;20040;-71
2021/07/24 03:38:23;;;;;;;3.60;2.53;;;;;;;;;;4973442;28;20101;-71
2021/07/24 03:40:48;;;;;;;4.65;2.83;;;;;;;;;;4955758;28;20114;-71
2021/07/24 03:43:14;;;;;;;4.40;2.50;;;;;;;;;;4992659;28;20030;-71
2021/07/24 03:45:40;;;;;;;4.32;2.45;;;;;;;;;;4973409;28;20051;-71
2021/07/24 03:48:06;;;;;;;3.50;2.47;;;;;;;;;;4973718;28;20031;-71
2021/07/24 03:50:32;;;;;;;3.53;2.30;;;;;;;;;;4973247;28;20057;-71
2021/07/24 03:52:57;;;;;;;3.22;2.20;;;;;;;;;;4989655;28;20101;-71
2021/07/24 03:55:23;;;;;;;4.78;2.80;;;;;;;;;;4989896;28;20124;-71
2021/07/24 03:57:51;;;;;;;3.80;2.17;;;;;;;;;;4973536;28;20031;-71
2021/07/24 04:00:17;;;;;;;4.88;2.55;;;;;;;;;;4972763;28;20026;-71
2021/07/24 04:02:43;;;;;;;3.85;2.58;;;;;;;;;;4972934;28;20154;-71
2021/07/24 04:05:10;;;;;;;3.28;2.40;;;;;;;;;;4973359;28;20033;-71
2021/07/24 04:07:37;;;;;;;3.83;2.30;;;;;;;;;;4973067;28;20023;-71
2021/07/24 04:10:04;;;;;;;3.47;2.50;;;;;;;;;;4972815;28;20023;-71
2021/07/24 04:12:30;;;;;;;5.65;2.13;;;;;;;;;;4972661;28;20434;-71
2021/07/24 04:14:56;;;;;;;3.80;2.50;;;;;;;;;;4973073;28;20113;-71
2021/07/24 04:17:22;;;;;;;5.95;2.97;;;;;;;;;;4973461;28;20466;-71
2021/07/24 04:19:48;;;;;;;3.92;2.45;;;;;;;;;;4973043;28;20114;-71
2021/07/24 04:22:14;;;;;;;3.85;2.35;;;;;;;;;;4973168;28;20129;-71
2021/07/24 04:24:40;;;;;;;3.92;2.15;;;;;;;;;;4973218;28;20374;-71
2021/07/24 04:27:08;;;;;;;3.40;2.35;;;;;;;;;;4973613;28;20085;-72
2021/07/24 04:29:33;;;;;;;4.80;3.60;;;;;;;;;;4973997;28;20026;-72
2021/07/24 04:31:59;;;;;;;5.18;2.80;;;;;;;;;;4974149;28;20039;-71
2021/07/24 04:34:25;;;;;;;2.90;2.33;;;;;;;;;;4973243;28;20394;-71
2021/07/24 04:36:51;;;;;;;3.78;2.20;;;;;;;;;;4973313;28;20117;-71
2021/07/24 04:39:16;;;;;;;3.35;2.13;;;;;;;;;;4973899;28;20111;-71
2021/07/24 04:41:42;;;;;;;4.45;2.83;;;;;;;;;;4977740;28;20022;-71
2021/07/24 04:44:08;;;;;;;5.15;2.95;;;;;;;;;;4973382;28;20110;-72
2021/07/24 04:46:35;;;;;;;3.40;2.25;;;;;;;;;;4972666;28;20239;-72
2021/07/24 04:49:01;;;;;;;4.47;2.20;;;;;;;;;;4972703;28;20034;-71
2021/07/24 04:51:26;;;;;;;3.60;1.85;;;;;;;;;;4976427;28;20027;-72
2021/07/24 04:53:53;;;;;;;3.53;2.00;;;;;;;;;;4980017;28;20027;-72
2021/07/24 04:56:19;;;;;;;4.22;2.13;;;;;;;;;;4972800;28;20077;-71
2021/07/24 04:58:45;;;;;;;2.63;1.85;;;;;;;;;;4970485;28;20027;-71
2021/07/24 05:01:12;;;;;;;4.25;1.80;;;;;;;;;;4972959;28;20015;-71
2021/07/24 05:03:40;;;;;;;4.45;2.13;;;;;;;;;;4972979;28;20027;-71
2021/07/24 05:06:06;;;;;;;2.88;2.13;;;;;;;;;;4972999;28;20113;-71
2021/07/24 05:08:36;;;;;;;2.60;2.00;;;;;;;;;;4973207;28;20441;-71
2021/07/24 05:11:03;;;;;;;1.98;1.70;;;;;;;;;;4971362;28;20027;-71
2021/07/24 05:13:28;;;;;;;2.33;1.52;;;;;;;;;;4972509;28;20081;-72
2021/07/24 05:15:54;;;;;;;2.28;1.70;;;;;;;;;;4973127;28;20026;-71
2021/07/24 05:18:19;;;;;;;2.95;1.77;;;;;;;;;;4972527;28;20046;-71
2021/07/24 05:20:45;;;;;;;2.70;1.60;;;;;;;;;;4972246;28;20023;-72
2021/07/24 05:23:11;;;;;;;3.25;1.85;;;;;;;;;;4972375;28;20074;-72
2021/07/24 05:25:38;;;;;;;2.95;1.90;;;;;;;;;;4971010;28;20089;-72
2021/07/24 05:28:03;;;;;;;4.32;2.00;;;;;;;;;;4972757;28;20026;-72
2021/07/24 05:30:35;;;;;;;3.80;1.70;;;;;;;;;;4972077;28;20470;-73
2021/07/24 05:33:01;;;;;;;2.53;1.40;;;;;;;;;;4972346;28;20055;-73
2021/07/24 05:35:27;;;;;;;5.22;1.67;;;;;;;;;;4971884;28;20071;-72
2021/07/24 05:37:53;;;;;;;4.90;1.70;;;;;;;;;;4972549;28;20526;-73
2021/07/24 05:40:18;;;;;;;2.03;1.40;;;;;;;;;;4975645;28;20122;-72
2021/07/24 05:42:44;;;;;;;2.47;1.42;;;;;;;;;;4975307;28;20447;-73
2021/07/24 05:45:10;;;;;;;3.10;1.77;;;;;;;;;;4975838;28;20058;-73
2021/07/24 05:47:36;;;;;;;3.30;1.42;;;;;;;;;;4976726;28;20031;-72
2021/07/24 05:50:03;;;;;;;4.70;1.25;;;;;;;;;;4976815;28;20033;-72
2021/07/24 05:52:29;;;;;;;5.07;1.45;;;;;;;;;;4976649;28;20038;-72
2021/07/24 05:54:54;;;;;;;2.28;1.38;;;;;;;;;;4976281;28;20418;-72
2021/07/24 05:57:20;;;;;;;2.58;1.42;;;;;;;;;;4975389;28;20022;-72
2021/07/24 05:59:45;;;;;;;1.85;1.30;;;;;;;;;;4974705;28;20454;-72
2021/07/24 06:02:14;;;;;;;2.80;1.42;;;;;;;;;;4975226;28;20022;-71
2021/07/24 06:04:40;;;;;;;4.60;1.52;;;;;;;;;;4974870;28;20061;-72
2021/07/24 06:07:06;;;;;;;2.45;1.35;;;;;;;;;;4974950;28;20466;-72
2021/07/24 06:09:32;;;;;;;3.08;1.30;;;;;;;;;;4975228;28;20027;-72
2021/07/24 06:11:57;;;;;;;2.97;1.50;;;;;;;;;;4974757;28;20082;-72
2021/07/24 06:14:24;;;;;;;3.08;1.65;;;;;;;;;;4975010;28;20025;-73
2021/07/24 06:16:50;;;;;;;2.20;1.30;;;;;;;;;;4975259;28;20033;-72
2021/07/24 06:19:16;;;;;;;2.75;1.50;;;;;;;;;;4974705;28;20538;-71
2021/07/24 06:21:42;;;;;;;4.68;1.80;;;;;;;;;;4974758;28;20382;-72
2021/07/24 06:24:07;;;;;;;5.85;1.52;;;;;;;;;;4974556;28;20035;-73
2021/07/24 06:26:37;;;;;;;3.40;1.70;;;;;;;;;;4974858;28;20027;-72
2021/07/24 06:29:03;;;;;;;3.97;1.50;;;;;;;;;;4974822;28;20540;-72
2021/07/24 06:31:29;;;;;;;2.40;1.50;;;;;;;;;;4974890;28;20027;-72
2021/07/24 06:33:55;;;;;;;4.13;1.63;;;;;;;;;;4974083;28;20058;-72
2021/07/24 06:36:21;;;;;;;5.28;1.88;;;;;;;;;;4973143;28;20031;-72
2021/07/24 06:38:46;;;;;;;4.45;1.83;;;;;;;;;;4974523;28;20030;-73
2021/07/24 06:41:14;;;;;;;4.78;1.98;;;;;;;;;;4977561;28;20022;-72
2021/07/24 06:43:39;;;;;;;3.78;1.52;;;;;;;;;;4993380;28;20365;-72
2021/07/24 06:46:09;;;;;;;2.80;1.50;;;;;;;;;;4974701;28;20081;-72
2021/07/24 06:48:34;;;;;;;3.20;1.50;;;;;;;;;;4973932;28;20027;-73
2021/07/24 06:51:00;;;;;;;3.15;1.52;;;;;;;;;;4973920;28;20027;-72
2021/07/24 06:53:26;;;;;;;3.65;1.80;;;;;;;;;;4975398;28;20094;-73
2021/07/24 06:55:58;;;;;;;3.72;1.60;;;;;;;;;;4973983;28;20141;-73
2021/07/24 06:58:23;;;;;;;2.70;1.52;;;;;;;;;;4974603;28;20030;-72
2021/07/24 07:00:48;;;;;;;2.33;1.58;;;;;;;;;;4973751;28;20034;-72
2021/07/24 07:03:14;;;;;;;3.20;1.50;;;;;;;;;;4974185;28;20018;-73
2021/07/24 07:05:39;;;;;;;4.15;1.90;;;;;;;;;;4973712;28;20113;-72
2021/07/24 07:08:05;;;;;;;4.40;1.48;;;;;;;;;;4973878;28;20034;-72
2021/07/24 07:10:31;;;;;;;2.30;1.27;;;;;;;;;;4970200;28;20082;-73
2021/07/24 07:12:57;;;;;;;3.28;1.63;;;;;;;;;;4973251;28;20039;-71
2021/07/24 07:15:25;;;;;;;3.08;1.30;;;;;;;;;;4972934;28;20026;-72
2021/07/24 07:17:52;;;;;;;1.48;1.30;;;;;;;;;;4971775;28;20459;-72
2021/07/24 07:20:17;;;;;;;2.90;1.60;;;;;;;;;;4971288;28;20413;-73
2021/07/24 07:22:45;;;;;;;4.30;1.45;;;;;;;;;;4966644;28;20110;-72
2021/07/24 07:25:11;;;;;;;3.35;1.42;;;;;;;;;;4970240;28;20109;-72
2021/07/24 07:27:41;;;;;;;2.80;1.30;;;;;;;;;;4970957;28;20113;-73
2021/07/24 07:30:07;;;;;;;1.58;1.10;;;;;;;;;;4972272;28;20045;-73
2021/07/24 07:32:33;;;;;;;1.88;1.20;;;;;;;;;;4972867;28;20541;-72
2021/07/24 07:35:01;;;;;;;1.73;1.10;;;;;;;;;;4972938;28;20039;-71
2021/07/24 07:37:26;;;;;;;1.52;1.00;;;;;;;;;;4973903;28;20498;-73
2021/07/24 07:39:52;;;;;;;2.30;1.10;;;;;;;;;;4971839;28;20023;-71
2021/07/24 07:42:18;;;;;;;1.75;0.90;;;;;;;;;;4974625;28;20023;-74
2021/07/24 07:44:43;;;;;;;1.58;0.85;;;;;;;;;;4972512;28;20058;-74
2021/07/24 07:47:09;;;;;;;3.25;1.10;;;;;;;;;;4971932;28;20106;-74
2021/07/24 07:49:35;;;;;;;4.10;1.00;;;;;;;;;;4972310;28;20034;-72
2021/07/24 07:52:00;;;;;;;3.83;1.10;;;;;;;;;;4974887;28;20525;-73
2021/07/24 07:54:30;;;;;;;1.13;0.85;;;;;;;;;;4971142;28;20029;-74
2021/07/24 07:56:56;;;;;;;2.95;1.05;;;;;;;;;;4970005;28;20478;-73
2021/07/24 07:59:21;;;;;;;1.80;1.00;;;;;;;;;;4972643;28;20026;-72
2021/07/24 08:01:47;;;;;;;2.30;1.25;;;;;;;;;;4971853;28;20114;-73
2021/07/24 08:04:26;;;;;;;1.65;0.98;;;;;;;;;;4972434;28;20109;-73
2021/07/24 08:07:05;;;;;;;3.10;1.20;;;;;;;;;;4972447;28;20022;-73
2021/07/24 08:09:31;;;;;;;3.13;0.90;;;;;;;;;;4972337;28;20476;-73
2021/07/24 08:11:57;;;;;;;1.13;0.85;;;;;;;;;;4971890;28;20100;-73
2021/07/24 08:14:22;;;;;;;1.00;0.88;;;;;;;;;;4971877;28;20015;-73
2021/07/24 08:16:48;;;;;;;1.23;0.88;;;;;;;;;;4971525;28;20058;-73
2021/07/24 08:19:13;;;;;;;3.28;1.10;;;;;;;;;;4971976;28;20019;-73
2021/07/24 08:21:39;;;;;;;1.52;1.00;;;;;;;;;;4971805;28;20033;-74
2021/07/24 08:24:04;;;;;;;2.28;1.23;;;;;;;;;;4970558;28;20545;-73
2021/07/24 08:26:30;;;;;;;3.60;1.02;;;;;;;;;;4972235;28;20023;-73
2021/07/24 08:28:55;;;;;;;1.60;1.10;;;;;;;;;;4972187;28;20069;-72
2021/07/24 08:31:20;;;;;;;2.20;1.15;;;;;;;;;;4972173;28;20113;-73
2021/07/24 08:33:46;;;;;;;2.45;1.20;;;;;;;;;;4971955;28;20034;-72
2021/07/24 08:36:11;;;;;;;3.10;1.00;;;;;;;;;;4972037;28;20529;-74
2021/07/24 08:38:37;;;;;;;2.38;1.13;;;;;;;;;;4971834;28;20030;-73
2021/07/24 08:41:03;;;;;;;1.83;0.90;;;;;;;;;;4973694;28;20027;-72
2021/07/24 08:43:28;;;;;;;1.60;1.10;;;;;;;;;;4991358;28;20031;-72
2021/07/24 08:45:56;;;;;;;1.13;0.80;;;;;;;;;;4991245;28;20099;-73
2021/07/24 08:48:21;;;;;;;1.85;0.90;;;;;;;;;;4991449;28;20101;-72
2021/07/24 08:50:48;;;;;;;1.42;1.00;;;;;;;;;;4991086;28;20165;-72
2021/07/24 08:53:20;;;;;;;1.73;1.00;;;;;;;;;;4972614;28;20546;-75
2021/07/24 08:55:46;;;;;;;2.88;0.93;;;;;;;;;;4972548;28;20117;-73
2021/07/24 08:58:18;;;;;;;1.50;1.08;;;;;;;;;;4971836;28;20133;-73
2021/07/24 09:00:44;;;;;;;1.50;1.00;;;;;;;;;;4972835;28;20031;-75
2021/07/24 09:03:16;;;;;;;1.55;1.02;;;;;;;;;;4972617;28;20031;-74
2021/07/24 09:05:43;;;;;;;2.90;1.00;;;;;;;;;;4973166;28;20170;-74
2021/07/24 09:08:12;;;;;;;1.50;1.00;;;;;;;;;;4971273;28;20031;-73
2021/07/24 09:10:37;;;;;;;1.48;0.93;;;;;;;;;;4972297;28;20504;-73
2021/07/24 09:13:03;;;;;;;3.70;1.23;;;;;;;;;;4973419;28;20117;-75
2021/07/24 09:15:29;;;;;;;1.45;0.90;;;;;;;;;;4975558;28;20586;-74
2021/07/24 09:17:55;;;;;;;2.33;1.10;;;;;;;;;;4976036;28;20034;-73
2021/07/24 09:20:26;;;;;;;3.15;1.10;;;;;;;;;;4974440;28;20023;-75
2021/07/24 09:22:53;;;;;;;2.17;1.20;;;;;;;;;;4975111;28;20102;-75
2021/07/24 09:25:20;;;;;;;1.90;1.17;;;;;;;;;;4975232;28;20030;-74
2021/07/24 09:27:51;;;;;;;2.42;1.27;;;;;;;;;;4974873;28;20030;-74
2021/07/24 09:30:28;;;;;;;1.90;1.02;;;;;;;;;;4975235;28;20425;-74
2021/07/24 09:33:11;;;;;;;2.13;1.13;;;;;;;;;;4975254;28;20026;-73
2021/07/24 09:35:36;;;;;;;1.80;1.10;;;;;;;;;;4975003;28;20051;-74
2021/07/24 09:38:06;;;;;;;1.90;0.90;;;;;;;;;;4975479;28;20027;-74
2021/07/24 09:40:33;;;;;;;4.75;1.15;;;;;;;;;;4975076;28;20117;-74
2021/07/24 09:42:59;;;;;;;1.48;1.00;;;;;;;;;;4992298;28;20454;-75
2021/07/24 09:45:24;;;;;;;1.60;0.90;;;;;;;;;;4994200;28;20109;-74
2021/07/24 09:47:52;;;;;;;1.75;0.93;;;;;;;;;;4994258;28;20084;-75
2021/07/24 09:50:18;;;;;;;1.67;1.00;;;;;;;;;;4994145;28;20045;-74
2021/07/24 09:52:51;;;;;;;1.15;0.88;;;;;;;;;;4993832;28;20065;-76
2021/07/24 09:55:21;;;;;;;2.45;1.10;;;;;;;;;;4993953;28;20029;-74
2021/07/24 09:57:47;;;;;;;5.60;1.17;;;;;;;;;;4993976;28;20019;-75
2021/07/24 10:00:20;;;;;;;1.42;0.80;;;;;;;;;;4992601;28;20387;-74
2021/07/24 10:02:46;;;;;;;1.40;0.85;;;;;;;;;;4993931;28;20053;-73
2021/07/24 10:05:11;;;;;;;1.55;0.80;;;;;;;;;;4991627;28;20027;-75
2021/07/24 10:07:42;;;;;;;1.25;0.75;;;;;;;;;;4973043;28;20037;-73
2021/07/24 10:10:08;;;;;;;3.72;0.90;;;;;;;;;;4974384;28;20042;-71
2021/07/24 10:12:34;;;;;;;0.77;0.77;;;;;;;;;;4977332;28;20086;-71
2021/07/24 10:15:00;;;;;;;2.38;0.80;;;;;;;;;;4973386;28;20019;-70
2021/07/24 10:17:26;;;;;;;2.35;0.90;;;;;;;;;;4971170;28;20027;-70
2021/07/24 10:19:51;;;;;;;3.38;1.20;;;;;;;;;;4973840;28;20228;-70
2021/07/24 10:22:18;;;;;;;1.85;0.90;;;;;;;;;;4974183;28;20320;-70
2021/07/24 10:24:43;;;;;;;1.25;0.70;;;;;;;;;;4973430;28;20023;-70
2021/07/24 10:27:23;;;;;;;1.15;0.82;;;;;;;;;;4974051;28;20471;-69
2021/07/24 10:30:01;;;;;;;1.42;0.70;;;;;;;;;;4973815;28;20030;-70
2021/07/24 10:32:30;;;;;;;2.28;0.80;;;;;;;;;;4972690;28;20034;-69
2021/07/24 10:34:55;;;;;;;2.25;0.95;;;;;;;;;;4973709;28;20422;-68
2021/07/24 10:37:35;;;;;;;2.60;1.20;;;;;;;;;;4974042;28;20026;-69
2021/07/24 10:40:22;;;;;;;1.67;1.10;;;;;;;;;;4973810;28;20062;-69
2021/07/24 10:42:48;;;;;;;1.98;1.13;;;;;;;;;;4988704;28;20050;-70
2021/07/24 10:45:37;;;;;;;2.00;1.30;;;;;;;;;;4992169;28;20040;-69
2021/07/24 10:48:11;;;;;;;3.40;1.50;;;;;;;;;;4992907;28;20445;-69
2021/07/24 10:50:52;;;;;;;1.73;1.38;;;;;;;;;;4992810;28;20058;-69
2021/07/24 10:53:18;;;;;;;4.82;1.38;;;;;;;;;;4973223;28;20050;-69
2021/07/24 10:55:46;;;;;;;2.38;1.10;;;;;;;;;;4973410;28;20537;-69
2021/07/24 10:58:12;;;;;;;2.80;1.50;;;;;;;;;;4973509;28;20493;-69
2021/07/24 11:00:40;;;;;;;2.72;1.20;;;;;;;;;;4973342;28;20026;-69
2021/07/24 11:03:42;;;;;;;3.10;1.10;;;;;;;;;;4972934;28;20482;-70
2021/07/24 11:06:23;;;;;;;2.28;1.17;;;;;;;;;;4972843;28;20031;-69
2021/07/24 11:08:57;;;;;;;3.58;1.20;;;;;;;;;;4973349;28;20031;-70
2021/07/24 11:11:42;;;;;;;3.28;1.15;;;;;;;;;;4973243;28;20055;-69
2021/07/24 11:14:28;;;;;;;1.98;1.00;;;;;;;;;;4973252;28;20447;-70
2021/07/24 11:17:05;;;;;;;3.20;1.30;;;;;;;;;;4972819;28;20044;-69
2021/07/24 11:19:32;;;;;;;3.78;1.27;;;;;;;;;;4973106;28;20026;-70
2021/07/24 11:22:09;;;;;;;1.33;0.98;;;;;;;;;;4972904;28;20034;-69
2021/07/24 11:24:35;;;;;;;1.88;1.00;;;;;;;;;;4972930;28;20504;-70
2021/07/24 11:27:00;;;;;;;6.43;1.10;;;;;;;;;;4972734;28;20026;-69
2021/07/24 11:29:26;;;;;;;3.22;1.10;;;;;;;;;;4972859;28;20030;-70
2021/07/24 11:31:52;;;;;;;3.50;1.40;;;;;;;;;;4972652;28;20029;-70
2021/07/24 11:34:21;;;;;;;1.73;1.00;;;;;;;;;;4972867;28;20039;-69
2021/07/24 11:36:50;;;;;;;1.45;0.95;;;;;;;;;;4972516;28;20027;-69
2021/07/24 11:39:16;;;;;;;2.25;1.10;;;;;;;;;;4972410;28;20027;-69
2021/07/24 11:41:41;;;;;;;1.95;1.15;;;;;;;;;;4979606;28;20034;-69
2021/07/24 11:44:07;;;;;;;3.05;1.00;;;;;;;;;;4991826;28;20029;-69
2021/07/24 11:46:32;;;;;;;1.40;1.00;;;;;;;;;;4992036;28;20030;-69
2021/07/24 11:49:04;;;;;;;2.83;0.90;;;;;;;;;;4991759;28;20105;-69
2021/07/24 11:51:30;;;;;;;1.23;0.90;;;;;;;;;;4987594;28;20030;-69
2021/07/24 11:53:56;;;;;;;3.20;1.10;;;;;;;;;;4972413;28;20031;-69
2021/07/24 11:56:21;;;;;;;1.80;1.08;;;;;;;;;;4972562;28;20050;-69
2021/07/24 11:58:54;;;;;;;1.35;1.00;;;;;;;;;;4972249;28;20126;-70
2021/07/24 12:01:24;;;;;;;1.83;1.02;;;;;;;;;;4972564;28;20060;-69
2021/07/24 12:04:08;;;;;;;1.60;1.00;;;;;;;;;;4972088;28;20475;-70
2021/07/24 12:06:37;;;;;;;4.03;1.20;;;;;;;;;;4972594;28;20059;-71
2021/07/24 12:09:04;;;;;;;1.50;1.00;;;;;;;;;;4972080;28;20066;-69
2021/07/24 12:11:29;;;;;;;1.15;0.95;;;;;;;;;;4972192;28;20394;-70
2021/07/24 12:14:05;;;;;;;2.53;1.30;;;;;;;;;;4971971;28;20018;-71
2021/07/24 12:16:41;;;;;;;2.10;1.30;;;;;;;;;;4970869;28;20022;-71
2021/07/24 12:19:14;;;;;;;3.08;1.23;;;;;;;;;;4971893;28;20062;-71
2021/07/24 12:21:40;;;;;;;9.48;2.92;;;;;;;;;;4972108;28;20049;-69
2021/07/24 12:24:07;;;;;;;2.40;1.25;;;;;;;;;;4971809;28;20035;-70
2021/07/24 12:26:39;;;;;;;2.33;1.23;;;;;;;;;;4972035;28;20030;-70
2021/07/24 12:29:10;;;;;;;5.32;1.52;;;;;;;;;;4971875;28;20058;-70
2021/07/24 12:31:53;;;;;;;91.63;10.10;;;;;;;;;;4972002;28;20033;-70
2021/07/24 12:34:22;;;;;;;;;;;;;;;;;;4972295;28;20110;-71
2021/07/24 12:36:56;;;;;;;4.80;1.40;;;;;;;;;;4971552;28;19953;-70
2021/07/24 12:39:23;;;;;;;2.65;1.50;;;;;;;;;;4986661;28;20035;-70
2021/07/24 12:42:03;;;;;;;50.05;6.50;;;;;;;;;;4979423;28;20113;-70
2021/07/24 12:44:29;;;;;;;1.90;1.20;;;;;;;;;;4990978;28;20038;-70
2021/07/24 12:47:15;;;;;;;2.58;1.30;;;;;;;;;;4990826;28;20431;-70
2021/07/24 12:49:45;;;;;;;7.10;1.30;;;;;;;;;;4994945;28;20033;-70
2021/07/24 12:52:30;;;;;;;3.42;1.30;;;;;;;;;;4984666;28;20027;-70
2021/07/24 12:55:03;;;;;;;4.68;1.20;;;;;;;;;;4975332;28;20037;-69
2021/07/24 12:57:29;;;;;;;2.08;1.20;;;;;;;;;;4974874;28;20034;-69
2021/07/24 12:59:56;;;;;;;1.73;1.10;;;;;;;;;;4975311;28;20085;-69
2021/07/24 13:02:26;;;;;;;3.42;1.10;;;;;;;;;;4977376;28;20045;-70
2021/07/24 13:04:52;;;;;;;1.73;1.02;;;;;;;;;;4975716;28;20031;-69
2021/07/24 13:07:18;;;;;;;2.13;1.00;;;;;;;;;;4976208;28;20552;-69
2021/07/24 13:09:44;;;;;;;1.70;1.15;;;;;;;;;;4974834;28;20031;-69
2021/07/24 13:12:09;;;;;;;3.55;1.10;;;;;;;;;;4976255;28;20122;-70
2021/07/24 13:14:35;;;;;;;2.45;1.10;;;;;;;;;;4976767;28;20023;-70
2021/07/24 13:17:00;;;;;;;3.67;1.15;;;;;;;;;;4977255;28;20109;-69
2021/07/24 13:19:25;;;;;;;2.17;1.10;;;;;;;;;;4976011;28;20597;-69
2021/07/24 13:21:51;;;;;;;3.08;1.58;;;;;;;;;;4975904;28;20050;-69
2021/07/24 13:24:17;;;;;;;2.92;1.17;;;;;;;;;;4975512;28;20085;-70
2021/07/24 13:29:14;;;;;;;1.65;1.10;;;;;;;;;;4975655;28;20030;-70
2021/07/24 13:31:42;;;;;;;1.63;1.00;;;;;;;;;;4974417;28;20057;-71
2021/07/24 13:34:10;;;;;;;3.10;1.05;;;;;;;;;;4975183;28;20109;-70
2021/07/24 13:36:38;;;;;;;3.92;1.10;;;;;;;;;;4975291;28;20107;-70
2021/07/24 13:39:04;;;;;;;2.90;1.05;;;;;;;;;;4975345;28;20031;-71
2021/07/24 13:41:30;;;;;;;8.90;1.38;;;;;;;;;;4973422;28;20035;-70
2021/07/24 13:43:55;;;;;;;1.65;1.17;;;;;;;;;;4973537;28;20509;-70
2021/07/24 13:46:21;;;;;;;1.92;0.93;;;;;;;;;;4975575;28;20027;-70
2021/07/24 13:48:48;;;;;;;1.50;0.98;;;;;;;;;;4975466;28;20415;-71
2021/07/24 13:51:24;;;;;;;2.20;1.30;;;;;;;;;;4974868;28;20049;-70
2021/07/24 13:53:50;;;;;;;3.75;1.08;;;;;;;;;;4975361;28;20023;-71
2021/07/24 13:56:18;;;;;;;3.40;1.25;;;;;;;;;;4974458;28;20029;-70
2021/07/24 13:58:44;;;;;;;2.50;1.20;;;;;;;;;;4974189;28;20475;-70
2021/07/24 14:01:10;;;;;;;2.25;1.10;;;;;;;;;;4974164;28;20038;-70
2021/07/24 14:03:37;;;;;;;4.40;1.38;;;;;;;;;;4975350;28;20031;-70
2021/07/24 14:06:03;;;;;;;2.15;1.20;;;;;;;;;;4974616;28;20431;-71
2021/07/24 14:08:30;;;;;;;2.63;1.40;;;;;;;;;;4974252;28;20378;-70
2021/07/24 14:10:57;;;;;;;1.67;1.20;;;;;;;;;;4974776;28;20027;-72
2021/07/24 14:13:23;;;;;;;2.10;1.30;;;;;;;;;;4974588;28;20037;-70
2021/07/24 14:15:50;;;;;;;3.53;1.30;;;;;;;;;;4969049;28;20031;-70
2021/07/24 14:18:16;;;;;;;2.35;1.30;;;;;;;;;;4971076;28;20345;-70
2021/07/24 14:20:43;;;;;;;3.65;1.27;;;;;;;;;;4974907;28;20110;-70
2021/07/24 14:23:09;;;;;;;4.05;1.20;;;;;;;;;;4976872;28;20105;-71
2021/07/24 14:25:34;;;;;;;3.75;1.30;;;;;;;;;;4975001;28;20448;-70
2021/07/24 14:28:00;;;;;;;1.77;1.00;;;;;;;;;;4973706;28;20074;-70
2021/07/24 14:30:25;;;;;;;4.18;1.30;;;;;;;;;;4974978;28;20422;-70
2021/07/24 14:32:52;;;;;;;1.38;1.17;;;;;;;;;;4974630;28;20030;-70
2021/07/24 14:35:17;;;;;;;1.85;1.10;;;;;;;;;;4974223;28;20428;-70
2021/07/24 14:37:43;;;;;;;2.03;1.30;;;;;;;;;;4973496;28;20105;-71
2021/07/24 14:40:09;;;;;;;3.42;1.40;;;;;;;;;;4974047;28;20029;-71
2021/07/24 14:42:35;;;;;;;1.73;1.15;;;;;;;;;;4974469;28;20035;-71
2021/07/24 14:45:00;;;;;;;2.00;1.13;;;;;;;;;;4974307;28;20038;-71
2021/07/24 14:47:26;;;;;;;2.47;1.10;;;;;;;;;;4974365;28;20031;-70
2021/07/24 14:49:54;;;;;;;1.52;1.10;;;;;;;;;;4973784;28;20034;-72
2021/07/24 14:52:20;;;;;;;1.30;1.00;;;;;;;;;;4978494;28;20037;-72